DAL547 KLAX-KMCO
Flight info
| Callsign | DAL547 |
|---|---|
| Flight time | 4h 21m |
| Altitude | 31000 |
| Route | DOTSS2 CLEEE PKE HIDAT KA27O NABOB J74 DRYHT/N0446F330 J74 TXO J72 SPS TXK MEI DEEDA GRNCH5 |
| Aircraft | A21N/M-SDE2E3FGHIRWXY/LB1 |
Departure
| Time | 2026-04-23 06:30 |
|---|---|
| Airport | Los Angeles International Airport (KLAX) |
Arrival
| Time | 2026-04-23 10:52 |
|---|---|
| Airport | Orlando International Airport (KMCO) |
| Time | Latitude | Longitude | Altitude | Speed | Heading |
|---|---|---|---|---|---|
| 2026-04-23 06:00 | 33.94660 | -118.40334 | 98 ft | 0 kts | 263° |
| 2026-04-23 06:20 | 33.94660 | -118.40331 | 99 ft | 3 kts | 263° |
| 2026-04-23 06:20 | 33.94663 | -118.40300 | 96 ft | 4 kts | 263° |
| 2026-04-23 06:21 | 33.94665 | -118.40274 | 96 ft | 4 kts | 275° |
| 2026-04-23 06:21 | 33.94657 | -118.40250 | 97 ft | 4 kts | 330° |
| 2026-04-23 06:21 | 33.94652 | -118.40246 | 98 ft | 4 kts | 353° |
| 2026-04-23 06:21 | 33.94679 | -118.40250 | 98 ft | 4 kts | 353° |
| 2026-04-23 06:22 | 33.94706 | -118.40254 | 99 ft | 4 kts | 353° |
| 2026-04-23 06:22 | 33.94716 | -118.40255 | 100 ft | 0 kts | 353° |
| 2026-04-23 06:26 | 33.94731 | -118.40258 | 100 ft | 4 kts | 353° |
| 2026-04-23 06:27 | 33.94769 | -118.40263 | 98 ft | 6 kts | 353° |
| 2026-04-23 06:27 | 33.94815 | -118.40274 | 99 ft | 7 kts | 338° |
| 2026-04-23 06:27 | 33.94868 | -118.40293 | 100 ft | 9 kts | 9° |
| 2026-04-23 06:27 | 33.94900 | -118.40231 | 102 ft | 10 kts | 82° |
| 2026-04-23 06:28 | 33.94909 | -118.40144 | 99 ft | 11 kts | 82° |
| 2026-04-23 06:28 | 33.94920 | -118.40049 | 98 ft | 12 kts | 82° |
| 2026-04-23 06:28 | 33.94933 | -118.39946 | 99 ft | 13 kts | 60° |
| 2026-04-23 06:28 | 33.95014 | -118.39912 | 99 ft | 10 kts | 343° |
| 2026-04-23 06:29 | 33.95040 | -118.39967 | 100 ft | 9 kts | 267° |
| 2026-04-23 06:29 | 33.95038 | -118.39991 | 99 ft | 0 kts | 263° |
| 2026-04-23 06:29 | 33.95033 | -118.40037 | 100 ft | 29 kts | 263° |
| 2026-04-23 06:30 | 33.94979 | -118.40564 | 102 ft | 98 kts | 263° |
| 2026-04-23 06:30 | 33.94868 | -118.41647 | 102 ft | 162 kts | 263° |
| 2026-04-23 06:30 | 33.94722 | -118.43065 | 560 ft | 174 kts | 262° |
| 2026-04-23 06:30 | 33.94545 | -118.44510 | 1293 ft | 175 kts | 260° |
| 2026-04-23 06:31 | 33.94357 | -118.46033 | 1691 ft | 194 kts | 266° |
| 2026-04-23 06:31 | 33.94270 | -118.47727 | 2103 ft | 210 kts | 270° |
| 2026-04-23 06:31 | 33.94242 | -118.49527 | 2610 ft | 223 kts | 270° |
| 2026-04-23 06:31 | 33.94147 | -118.51508 | 2871 ft | 249 kts | 266° |
| 2026-04-23 06:32 | 33.93982 | -118.53637 | 3458 ft | 260 kts | 266° |
| 2026-04-23 06:32 | 33.93808 | -118.55817 | 4232 ft | 262 kts | 266° |
| 2026-04-23 06:32 | 33.93643 | -118.57982 | 5040 ft | 264 kts | 265° |
| 2026-04-23 06:32 | 33.93428 | -118.60178 | 5846 ft | 265 kts | 259° |
| 2026-04-23 06:33 | 33.92719 | -118.62224 | 6631 ft | 269 kts | 236° |
| 2026-04-23 06:33 | 33.91310 | -118.63729 | 7341 ft | 277 kts | 211° |
| 2026-04-23 06:33 | 33.89436 | -118.64332 | 8020 ft | 287 kts | 186° |
| 2026-04-23 06:33 | 33.87424 | -118.64212 | 8721 ft | 292 kts | 179° |
| 2026-04-23 06:34 | 33.85387 | -118.63967 | 9391 ft | 297 kts | 177° |
| 2026-04-23 06:34 | 33.83371 | -118.63303 | 10033 ft | 308 kts | 158° |
| 2026-04-23 06:34 | 33.81497 | -118.61925 | 10396 ft | 325 kts | 149° |
| 2026-04-23 06:34 | 33.79630 | -118.60324 | 10669 ft | 342 kts | 148° |
| 2026-04-23 06:35 | 33.77646 | -118.58628 | 10916 ft | 358 kts | 148° |
| 2026-04-23 06:35 | 33.75555 | -118.56873 | 11163 ft | 375 kts | 149° |
| 2026-04-23 06:35 | 33.73358 | -118.55069 | 11424 ft | 390 kts | 149° |
| 2026-04-23 06:35 | 33.71139 | -118.53143 | 11884 ft | 399 kts | 142° |
| 2026-04-23 06:36 | 33.69316 | -118.50603 | 12490 ft | 407 kts | 123° |
| 2026-04-23 06:36 | 33.68145 | -118.47487 | 13097 ft | 413 kts | 110° |
| 2026-04-23 06:36 | 33.67239 | -118.44192 | 13695 ft | 417 kts | 109° |
| 2026-04-23 06:36 | 33.66332 | -118.40870 | 14239 ft | 421 kts | 109° |
| 2026-04-23 06:37 | 33.65397 | -118.37567 | 14741 ft | 425 kts | 110° |
| 2026-04-23 06:37 | 33.64567 | -118.34150 | 15226 ft | 431 kts | 100° |
| 2026-04-23 06:37 | 33.64376 | -118.30544 | 15706 ft | 435 kts | 89° |
| 2026-04-23 06:37 | 33.64400 | -118.26905 | 16213 ft | 439 kts | 88° |
| 2026-04-23 06:38 | 33.64433 | -118.23232 | 16717 ft | 442 kts | 89° |
| 2026-04-23 06:38 | 33.64452 | -118.19523 | 17216 ft | 446 kts | 89° |
| 2026-04-23 06:38 | 33.64461 | -118.15780 | 17713 ft | 450 kts | 89° |
| 2026-04-23 06:38 | 33.64464 | -118.12007 | 18229 ft | 454 kts | 89° |
| 2026-04-23 06:39 | 33.64463 | -118.08199 | 18680 ft | 458 kts | 89° |
| 2026-04-23 06:39 | 33.64459 | -118.04414 | 19115 ft | 462 kts | 90° |
| 2026-04-23 06:39 | 33.64455 | -118.00548 | 19510 ft | 466 kts | 90° |
| 2026-04-23 06:39 | 33.64444 | -117.96654 | 19932 ft | 469 kts | 90° |
| 2026-04-23 06:40 | 33.64438 | -117.92724 | 20351 ft | 472 kts | 90° |
| 2026-04-23 06:40 | 33.64428 | -117.88777 | 20784 ft | 474 kts | 90° |
| 2026-04-23 06:40 | 33.64421 | -117.84810 | 21197 ft | 477 kts | 89° |
| 2026-04-23 06:40 | 33.64445 | -117.80812 | 21608 ft | 480 kts | 86° |
| 2026-04-23 06:41 | 33.64890 | -117.76849 | 21988 ft | 481 kts | 76° |
| 2026-04-23 06:41 | 33.65633 | -117.72922 | 22395 ft | 484 kts | 74° |
| 2026-04-23 06:41 | 33.66419 | -117.68979 | 22794 ft | 487 kts | 74° |
| 2026-04-23 06:41 | 33.67190 | -117.65067 | 23184 ft | 490 kts | 74° |
| 2026-04-23 06:42 | 33.67966 | -117.61067 | 23578 ft | 493 kts | 75° |
| 2026-04-23 06:42 | 33.68739 | -117.57048 | 23914 ft | 496 kts | 75° |
| 2026-04-23 06:42 | 33.69512 | -117.52994 | 24211 ft | 499 kts | 75° |
| 2026-04-23 06:42 | 33.70288 | -117.48924 | 24512 ft | 502 kts | 75° |
| 2026-04-23 06:43 | 33.71069 | -117.44826 | 24771 ft | 505 kts | 75° |
| 2026-04-23 06:43 | 33.71857 | -117.40695 | 25056 ft | 508 kts | 75° |
| 2026-04-23 06:43 | 33.72646 | -117.36545 | 25354 ft | 511 kts | 75° |
| 2026-04-23 06:43 | 33.73426 | -117.32430 | 25640 ft | 513 kts | 75° |
| 2026-04-23 06:44 | 33.74219 | -117.28238 | 25916 ft | 516 kts | 75° |
| 2026-04-23 06:44 | 33.74934 | -117.23997 | 26181 ft | 521 kts | 81° |
| 2026-04-23 06:44 | 33.75110 | -117.19645 | 26429 ft | 524 kts | 90° |
| 2026-04-23 06:44 | 33.75024 | -117.15251 | 26718 ft | 527 kts | 92° |
| 2026-04-23 06:45 | 33.74909 | -117.10835 | 27041 ft | 529 kts | 92° |
| 2026-04-23 06:45 | 33.74798 | -117.06412 | 27331 ft | 531 kts | 92° |
| 2026-04-23 06:45 | 33.74696 | -117.01978 | 27662 ft | 531 kts | 91° |
| 2026-04-23 06:45 | 33.74600 | -116.97539 | 27997 ft | 532 kts | 91° |
| 2026-04-23 06:46 | 33.74508 | -116.93095 | 28341 ft | 532 kts | 91° |
| 2026-04-23 06:46 | 33.74412 | -116.88705 | 28656 ft | 533 kts | 92° |
| 2026-04-23 06:46 | 33.74313 | -116.84263 | 29010 ft | 532 kts | 92° |
| 2026-04-23 06:46 | 33.74208 | -116.79818 | 29368 ft | 532 kts | 92° |
| 2026-04-23 06:47 | 33.74102 | -116.75375 | 29702 ft | 532 kts | 92° |
| 2026-04-23 06:47 | 33.73998 | -116.70936 | 30002 ft | 532 kts | 92° |
| 2026-04-23 06:47 | 33.73895 | -116.66492 | 30261 ft | 532 kts | 92° |
| 2026-04-23 06:47 | 33.73789 | -116.62042 | 30437 ft | 534 kts | 92° |
| 2026-04-23 06:48 | 33.73678 | -116.57579 | 30609 ft | 536 kts | 92° |
| 2026-04-23 06:48 | 33.73567 | -116.53156 | 30812 ft | 537 kts | 92° |
| 2026-04-23 06:48 | 33.73454 | -116.48658 | 30920 ft | 541 kts | 92° |
| 2026-04-23 06:48 | 33.73339 | -116.44144 | 31018 ft | 540 kts | 92° |
| 2026-04-23 06:49 | 33.73103 | -116.35130 | 30978 ft | 539 kts | 92° |
| 2026-04-23 06:49 | 33.72861 | -116.26136 | 30961 ft | 538 kts | 92° |
| 2026-04-23 06:50 | 33.72611 | -116.17134 | 30958 ft | 540 kts | 92° |
| 2026-04-23 06:50 | 33.72577 | -116.08185 | 30935 ft | 539 kts | 83° |
| 2026-04-23 06:51 | 33.73277 | -116.03777 | 30936 ft | 536 kts | 71° |
| 2026-04-23 06:51 | 33.74413 | -115.99524 | 30940 ft | 535 kts | 68° |
| 2026-04-23 06:51 | 33.76840 | -115.91072 | 30929 ft | 535 kts | 68° |
| 2026-04-23 06:52 | 33.79198 | -115.82588 | 30924 ft | 535 kts | 68° |
| 2026-04-23 06:52 | 33.81542 | -115.74100 | 30925 ft | 535 kts | 68° |
| 2026-04-23 06:53 | 33.83872 | -115.65658 | 30927 ft | 535 kts | 68° |
| 2026-04-23 06:53 | 33.86206 | -115.57191 | 30922 ft | 531 kts | 68° |
| 2026-04-23 06:54 | 33.88515 | -115.48740 | 30901 ft | 532 kts | 68° |
| 2026-04-23 06:54 | 33.90834 | -115.40282 | 30911 ft | 532 kts | 68° |
| 2026-04-23 06:55 | 33.93119 | -115.31877 | 30903 ft | 531 kts | 68° |
| 2026-04-23 06:55 | 33.95399 | -115.23435 | 30902 ft | 529 kts | 69° |
| 2026-04-23 06:56 | 33.97683 | -115.15006 | 30897 ft | 529 kts | 69° |
| 2026-04-23 06:56 | 33.99955 | -115.06572 | 30897 ft | 529 kts | 69° |
| 2026-04-23 06:57 | 34.02191 | -114.98191 | 30915 ft | 529 kts | 69° |
| 2026-04-23 06:57 | 34.04458 | -114.89752 | 30902 ft | 529 kts | 69° |
| 2026-04-23 06:58 | 34.06702 | -114.81309 | 30898 ft | 529 kts | 69° |
| 2026-04-23 06:58 | 34.08949 | -114.72859 | 30895 ft | 529 kts | 69° |
| 2026-04-23 06:59 | 34.11233 | -114.64481 | 30901 ft | 529 kts | 68° |
| 2026-04-23 06:59 | 34.13593 | -114.56076 | 30891 ft | 529 kts | 68° |
| 2026-04-23 07:00 | 34.15962 | -114.47671 | 30893 ft | 529 kts | 68° |
| 2026-04-23 07:00 | 34.18300 | -114.39250 | 30889 ft | 529 kts | 68° |
| 2026-04-23 07:01 | 34.20639 | -114.30821 | 30891 ft | 529 kts | 68° |
| 2026-04-23 07:01 | 34.22940 | -114.22444 | 30881 ft | 529 kts | 68° |
| 2026-04-23 07:02 | 34.25268 | -114.14013 | 30882 ft | 529 kts | 68° |
| 2026-04-23 07:02 | 34.27601 | -114.05578 | 30880 ft | 527 kts | 69° |
| 2026-04-23 07:03 | 34.29918 | -113.97162 | 30877 ft | 528 kts | 69° |
| 2026-04-23 07:03 | 34.32230 | -113.88724 | 30910 ft | 529 kts | 69° |
| 2026-04-23 07:04 | 34.34509 | -113.80362 | 30885 ft | 526 kts | 69° |
| 2026-04-23 07:04 | 34.36800 | -113.71964 | 30877 ft | 525 kts | 69° |
| 2026-04-23 07:05 | 34.39080 | -113.63577 | 30880 ft | 524 kts | 69° |
| 2026-04-23 07:05 | 34.41348 | -113.55197 | 30883 ft | 524 kts | 69° |
| 2026-04-23 07:06 | 34.43593 | -113.46865 | 30887 ft | 524 kts | 69° |
| 2026-04-23 07:06 | 34.45849 | -113.38476 | 30889 ft | 523 kts | 69° |
| 2026-04-23 07:07 | 34.48095 | -113.30090 | 30885 ft | 523 kts | 69° |
| 2026-04-23 07:07 | 34.50333 | -113.21708 | 30895 ft | 522 kts | 69° |
| 2026-04-23 07:08 | 34.52553 | -113.13376 | 30891 ft | 523 kts | 69° |
| 2026-04-23 07:08 | 34.54777 | -113.05001 | 30897 ft | 521 kts | 70° |
| 2026-04-23 07:09 | 34.56400 | -112.96427 | 30904 ft | 524 kts | 86° |
| 2026-04-23 07:09 | 34.56061 | -112.87610 | 30914 ft | 523 kts | 96° |
| 2026-04-23 07:10 | 34.55421 | -112.78876 | 30912 ft | 524 kts | 96° |
| 2026-04-23 07:10 | 34.54824 | -112.70016 | 30904 ft | 524 kts | 96° |
| 2026-04-23 07:11 | 34.54246 | -112.61250 | 30919 ft | 524 kts | 96° |
| 2026-04-23 07:12 | 34.53364 | -112.48039 | 31044 ft | 524 kts | 96° |
| 2026-04-23 07:12 | 34.52753 | -112.39249 | 31062 ft | 525 kts | 96° |
| 2026-04-23 07:13 | 34.52150 | -112.30471 | 31039 ft | 525 kts | 96° |
| 2026-04-23 07:13 | 34.51536 | -112.21644 | 31006 ft | 525 kts | 96° |
| 2026-04-23 07:14 | 34.50909 | -112.12857 | 30969 ft | 525 kts | 96° |
| 2026-04-23 07:14 | 34.50279 | -112.04011 | 30928 ft | 525 kts | 96° |
| 2026-04-23 07:15 | 34.48898 | -111.95408 | 30928 ft | 521 kts | 109° |
| 2026-04-23 07:15 | 34.46791 | -111.87063 | 30909 ft | 521 kts | 110° |
| 2026-04-23 07:16 | 34.44677 | -111.78665 | 30901 ft | 521 kts | 110° |
| 2026-04-23 07:16 | 34.42580 | -111.70284 | 30920 ft | 520 kts | 110° |
| 2026-04-23 07:17 | 34.40470 | -111.61900 | 30920 ft | 520 kts | 110° |
| 2026-04-23 07:17 | 34.38376 | -111.53573 | 31017 ft | 520 kts | 110° |
| 2026-04-23 07:18 | 34.36269 | -111.45234 | 31061 ft | 520 kts | 110° |
| 2026-04-23 07:18 | 34.34137 | -111.36819 | 31097 ft | 521 kts | 110° |
| 2026-04-23 07:19 | 34.32939 | -111.28250 | 31091 ft | 526 kts | 90° |
| 2026-04-23 07:19 | 34.33362 | -111.19397 | 31070 ft | 527 kts | 85° |
| 2026-04-23 07:20 | 34.33865 | -111.10575 | 31012 ft | 525 kts | 85° |
| 2026-04-23 07:20 | 34.34320 | -111.01776 | 30972 ft | 524 kts | 86° |
| 2026-04-23 07:21 | 34.34761 | -110.92985 | 30921 ft | 524 kts | 86° |
| 2026-04-23 07:21 | 34.35178 | -110.84226 | 30915 ft | 524 kts | 86° |
| 2026-04-23 07:22 | 34.35609 | -110.75472 | 30911 ft | 519 kts | 85° |
| 2026-04-23 07:22 | 34.36043 | -110.66746 | 30906 ft | 519 kts | 86° |
| 2026-04-23 07:23 | 34.36455 | -110.58058 | 30894 ft | 519 kts | 86° |
| 2026-04-23 07:23 | 34.36865 | -110.49330 | 30929 ft | 519 kts | 86° |
| 2026-04-23 07:24 | 34.37266 | -110.40608 | 30988 ft | 517 kts | 86° |
| 2026-04-23 07:24 | 34.37662 | -110.31924 | 31030 ft | 518 kts | 86° |
| 2026-04-23 07:25 | 34.38059 | -110.23261 | 31082 ft | 518 kts | 87° |
| 2026-04-23 07:25 | 34.38443 | -110.14550 | 31108 ft | 518 kts | 87° |
| 2026-04-23 07:26 | 34.38757 | -110.07307 | 31113 ft | 519 kts | 87° |
| 2026-04-23 07:26 | 34.39189 | -109.97149 | 31094 ft | 519 kts | 87° |
| 2026-04-23 07:27 | 34.39547 | -109.88439 | 31058 ft | 519 kts | 87° |
| 2026-04-23 07:27 | 34.39848 | -109.81184 | 31018 ft | 519 kts | 87° |
| 2026-04-23 07:28 | 34.40248 | -109.71034 | 30940 ft | 518 kts | 88° |
| 2026-04-23 07:28 | 34.40598 | -109.62331 | 30862 ft | 518 kts | 88° |
| 2026-04-23 07:29 | 34.40861 | -109.55102 | 30875 ft | 517 kts | 88° |
| 2026-04-23 07:29 | 34.41180 | -109.46377 | 30903 ft | 518 kts | 88° |
| 2026-04-23 07:30 | 34.41568 | -109.36245 | 30919 ft | 518 kts | 88° |
| 2026-04-23 07:30 | 34.41905 | -109.27545 | 30916 ft | 518 kts | 88° |
| 2026-04-23 07:31 | 34.42161 | -109.20238 | 30895 ft | 519 kts | 88° |
| 2026-04-23 07:31 | 34.42359 | -109.11558 | 30854 ft | 518 kts | 91° |
| 2026-04-23 07:32 | 34.42332 | -109.02865 | 30836 ft | 516 kts | 91° |
| 2026-04-23 07:32 | 34.42303 | -108.94191 | 30834 ft | 516 kts | 91° |
| 2026-04-23 07:33 | 34.42260 | -108.85516 | 30833 ft | 517 kts | 91° |
| 2026-04-23 07:33 | 34.42238 | -108.76799 | 30815 ft | 516 kts | 91° |
| 2026-04-23 07:34 | 34.42200 | -108.68155 | 30808 ft | 513 kts | 91° |
| 2026-04-23 07:34 | 34.42150 | -108.59552 | 30811 ft | 514 kts | 91° |
| 2026-04-23 07:35 | 34.42080 | -108.50859 | 30810 ft | 514 kts | 91° |
| 2026-04-23 07:35 | 34.42018 | -108.42221 | 30780 ft | 513 kts | 91° |
| 2026-04-23 07:36 | 34.41948 | -108.33649 | 30788 ft | 509 kts | 91° |
| 2026-04-23 07:36 | 34.41865 | -108.25108 | 30792 ft | 510 kts | 91° |
| 2026-04-23 07:37 | 34.41743 | -108.16525 | 30795 ft | 510 kts | 92° |
| 2026-04-23 07:37 | 34.41660 | -108.07965 | 30784 ft | 509 kts | 91° |
| 2026-04-23 07:38 | 34.41567 | -107.99393 | 30785 ft | 509 kts | 92° |
| 2026-04-23 07:38 | 34.41468 | -107.90866 | 30752 ft | 509 kts | 91° |
| 2026-04-23 07:39 | 34.41366 | -107.82252 | 30781 ft | 511 kts | 91° |
| 2026-04-23 07:39 | 34.41265 | -107.73714 | 30792 ft | 511 kts | 91° |
| 2026-04-23 07:40 | 34.41139 | -107.65164 | 30789 ft | 507 kts | 92° |
| 2026-04-23 07:40 | 34.41017 | -107.56624 | 30788 ft | 507 kts | 92° |
| 2026-04-23 07:41 | 34.40883 | -107.48084 | 30798 ft | 507 kts | 92° |
| 2026-04-23 07:41 | 34.40746 | -107.39539 | 30815 ft | 507 kts | 92° |
| 2026-04-23 07:42 | 34.40604 | -107.31045 | 30800 ft | 508 kts | 92° |
| 2026-04-23 07:42 | 34.40451 | -107.22483 | 30796 ft | 509 kts | 92° |
| 2026-04-23 07:43 | 34.40294 | -107.13932 | 30791 ft | 508 kts | 92° |
| 2026-04-23 07:43 | 34.40130 | -107.05369 | 30788 ft | 508 kts | 92° |
| 2026-04-23 07:44 | 34.39963 | -106.96836 | 30808 ft | 513 kts | 92° |
| 2026-04-23 07:44 | 34.39788 | -106.88197 | 30802 ft | 513 kts | 92° |
| 2026-04-23 07:45 | 34.39600 | -106.79563 | 30800 ft | 513 kts | 92° |
| 2026-04-23 07:45 | 34.39403 | -106.70919 | 30803 ft | 513 kts | 93° |
| 2026-04-23 07:46 | 34.39207 | -106.62325 | 30813 ft | 515 kts | 92° |
| 2026-04-23 07:46 | 34.39002 | -106.53658 | 30807 ft | 515 kts | 93° |
| 2026-04-23 07:47 | 34.38797 | -106.44987 | 30808 ft | 515 kts | 92° |
| 2026-04-23 07:47 | 34.38580 | -106.36314 | 30783 ft | 515 kts | 93° |
| 2026-04-23 07:48 | 34.38353 | -106.27670 | 30788 ft | 510 kts | 92° |
| 2026-04-23 07:48 | 34.38129 | -106.19143 | 30798 ft | 510 kts | 92° |
| 2026-04-23 07:49 | 34.37895 | -106.10559 | 30795 ft | 510 kts | 92° |
| 2026-04-23 07:49 | 34.37687 | -106.01973 | 30801 ft | 510 kts | 92° |
| 2026-04-23 07:50 | 34.37453 | -105.93409 | 30798 ft | 505 kts | 92° |
| 2026-04-23 07:50 | 34.37209 | -105.84960 | 30798 ft | 506 kts | 92° |
| 2026-04-23 07:51 | 34.36956 | -105.76441 | 30789 ft | 506 kts | 92° |
| 2026-04-23 07:51 | 34.36736 | -105.67924 | 30786 ft | 507 kts | 89° |
| 2026-04-23 07:52 | 34.37156 | -105.59435 | 30763 ft | 501 kts | 86° |
| 2026-04-23 07:52 | 34.37635 | -105.51038 | 30774 ft | 500 kts | 86° |
| 2026-04-23 07:53 | 34.38098 | -105.42693 | 30763 ft | 501 kts | 86° |
| 2026-04-23 07:53 | 34.38555 | -105.34279 | 30751 ft | 501 kts | 86° |
| 2026-04-23 07:54 | 34.39001 | -105.25867 | 30755 ft | 501 kts | 86° |
| 2026-04-23 07:54 | 34.39443 | -105.17506 | 30738 ft | 501 kts | 86° |
| 2026-04-23 07:55 | 34.39886 | -105.09083 | 30734 ft | 501 kts | 86° |
| 2026-04-23 07:55 | 34.40320 | -105.00657 | 30711 ft | 502 kts | 86° |
| 2026-04-23 07:56 | 34.40730 | -104.92220 | 30701 ft | 502 kts | 87° |
| 2026-04-23 07:56 | 34.41168 | -104.83774 | 30697 ft | 503 kts | 86° |
| 2026-04-23 07:57 | 34.41593 | -104.75309 | 30694 ft | 504 kts | 87° |
| 2026-04-23 07:57 | 34.41995 | -104.66905 | 30696 ft | 503 kts | 87° |
| 2026-04-23 07:58 | 34.42412 | -104.58438 | 30670 ft | 503 kts | 87° |
| 2026-04-23 07:58 | 34.42815 | -104.49972 | 30653 ft | 504 kts | 87° |
| 2026-04-23 07:59 | 34.43206 | -104.41506 | 30647 ft | 504 kts | 87° |
| 2026-04-23 07:59 | 34.43595 | -104.33031 | 30636 ft | 504 kts | 87° |
| 2026-04-23 08:00 | 34.43976 | -104.24618 | 30629 ft | 504 kts | 87° |
| 2026-04-23 08:00 | 34.44355 | -104.16165 | 30616 ft | 501 kts | 87° |
| 2026-04-23 08:01 | 34.44726 | -104.07730 | 30621 ft | 501 kts | 87° |
| 2026-04-23 08:01 | 34.45091 | -103.99317 | 30608 ft | 501 kts | 87° |
| 2026-04-23 08:02 | 34.45450 | -103.90892 | 30610 ft | 501 kts | 87° |
| 2026-04-23 08:02 | 34.45801 | -103.82524 | 30607 ft | 499 kts | 87° |
| 2026-04-23 08:03 | 34.46147 | -103.74106 | 30607 ft | 498 kts | 87° |
| 2026-04-23 08:03 | 34.46485 | -103.65761 | 30609 ft | 499 kts | 87° |
| 2026-04-23 08:04 | 34.46818 | -103.57348 | 30625 ft | 499 kts | 87° |
| 2026-04-23 08:04 | 34.47150 | -103.48993 | 30645 ft | 498 kts | 88° |
| 2026-04-23 08:05 | 34.47472 | -103.40627 | 30649 ft | 496 kts | 88° |
| 2026-04-23 08:05 | 34.47782 | -103.32278 | 30673 ft | 496 kts | 88° |
| 2026-04-23 08:06 | 34.48097 | -103.23978 | 30677 ft | 496 kts | 88° |
| 2026-04-23 08:06 | 34.48403 | -103.15618 | 30713 ft | 496 kts | 88° |
| 2026-04-23 08:07 | 34.48701 | -103.07261 | 30722 ft | 496 kts | 88° |
| 2026-04-23 08:07 | 34.48996 | -102.98918 | 30723 ft | 496 kts | 88° |
| 2026-04-23 08:08 | 34.49282 | -102.90629 | 30712 ft | 496 kts | 88° |
| 2026-04-23 08:08 | 34.49339 | -102.82283 | 30710 ft | 494 kts | 97° |
| 2026-04-23 08:09 | 34.48508 | -102.74018 | 30702 ft | 494 kts | 99° |
| 2026-04-23 08:09 | 34.47640 | -102.65761 | 30709 ft | 494 kts | 99° |
| 2026-04-23 08:10 | 34.46786 | -102.57510 | 30698 ft | 494 kts | 99° |
| 2026-04-23 08:10 | 34.45499 | -102.45186 | 30692 ft | 494 kts | 99° |
| 2026-04-23 08:11 | 34.44630 | -102.36936 | 30693 ft | 493 kts | 99° |
| 2026-04-23 08:11 | 34.43759 | -102.28715 | 30688 ft | 492 kts | 99° |
| 2026-04-23 08:12 | 34.42885 | -102.20544 | 30697 ft | 492 kts | 99° |
| 2026-04-23 08:12 | 34.42004 | -102.12322 | 30699 ft | 492 kts | 99° |
| 2026-04-23 08:13 | 34.41114 | -102.04100 | 30683 ft | 492 kts | 99° |
| 2026-04-23 08:13 | 34.40207 | -101.95901 | 30696 ft | 491 kts | 99° |
| 2026-04-23 08:14 | 34.39294 | -101.87756 | 30744 ft | 492 kts | 99° |
| 2026-04-23 08:14 | 34.38380 | -101.79555 | 30768 ft | 492 kts | 99° |
| 2026-04-23 08:15 | 34.37490 | -101.71342 | 30781 ft | 492 kts | 99° |
| 2026-04-23 08:15 | 34.36601 | -101.63134 | 30781 ft | 490 kts | 99° |
| 2026-04-23 08:16 | 34.35695 | -101.55025 | 30768 ft | 490 kts | 99° |
| 2026-04-23 08:16 | 34.34756 | -101.46869 | 30744 ft | 489 kts | 100° |
| 2026-04-23 08:17 | 34.33809 | -101.38708 | 30711 ft | 490 kts | 99° |
| 2026-04-23 08:17 | 34.32909 | -101.30550 | 30694 ft | 490 kts | 99° |
| 2026-04-23 08:18 | 34.31978 | -101.22394 | 30697 ft | 489 kts | 100° |
| 2026-04-23 08:18 | 34.31042 | -101.14293 | 30696 ft | 490 kts | 100° |
| 2026-04-23 08:19 | 34.30091 | -101.06139 | 30699 ft | 489 kts | 100° |
| 2026-04-23 08:19 | 34.29137 | -100.97988 | 30692 ft | 489 kts | 100° |
| 2026-04-23 08:20 | 34.28178 | -100.89855 | 30692 ft | 488 kts | 100° |
| 2026-04-23 08:20 | 34.27224 | -100.81783 | 30693 ft | 488 kts | 100° |
| 2026-04-23 08:21 | 34.26260 | -100.73654 | 30688 ft | 488 kts | 100° |
| 2026-04-23 08:21 | 34.25286 | -100.65522 | 30704 ft | 489 kts | 100° |
| 2026-04-23 08:22 | 34.24304 | -100.57378 | 30707 ft | 490 kts | 100° |
| 2026-04-23 08:22 | 34.23325 | -100.49292 | 30711 ft | 489 kts | 100° |
| 2026-04-23 08:23 | 34.22337 | -100.41157 | 30720 ft | 489 kts | 100° |
| 2026-04-23 08:23 | 34.21324 | -100.33033 | 30722 ft | 489 kts | 100° |
| 2026-04-23 08:24 | 34.20325 | -100.24905 | 30761 ft | 489 kts | 100° |
| 2026-04-23 08:24 | 34.19335 | -100.16805 | 30761 ft | 487 kts | 99° |
| 2026-04-23 08:25 | 34.18335 | -100.08755 | 30752 ft | 487 kts | 100° |
| 2026-04-23 08:25 | 34.17300 | -100.00715 | 30747 ft | 487 kts | 99° |
| 2026-04-23 08:26 | 34.16299 | -99.92641 | 30738 ft | 487 kts | 100° |
| 2026-04-23 08:26 | 34.15281 | -99.84535 | 30743 ft | 487 kts | 100° |
| 2026-04-23 08:27 | 34.14260 | -99.76514 | 30746 ft | 485 kts | 100° |
| 2026-04-23 08:27 | 34.13229 | -99.68489 | 30749 ft | 485 kts | 100° |
| 2026-04-23 08:28 | 34.12192 | -99.60422 | 30758 ft | 485 kts | 100° |
| 2026-04-23 08:28 | 34.11137 | -99.52379 | 30756 ft | 485 kts | 100° |
| 2026-04-23 08:29 | 34.10106 | -99.44402 | 30747 ft | 485 kts | 99° |
| 2026-04-23 08:29 | 34.09050 | -99.36382 | 30759 ft | 484 kts | 99° |
| 2026-04-23 08:30 | 34.07973 | -99.28373 | 30761 ft | 484 kts | 100° |
| 2026-04-23 08:30 | 34.06898 | -99.20352 | 30770 ft | 484 kts | 100° |
| 2026-04-23 08:31 | 34.05843 | -99.12393 | 30773 ft | 484 kts | 100° |
| 2026-04-23 08:31 | 34.04775 | -99.04389 | 30781 ft | 482 kts | 99° |
| 2026-04-23 08:32 | 34.03694 | -98.96418 | 30778 ft | 482 kts | 99° |
| 2026-04-23 08:32 | 34.02642 | -98.88437 | 30785 ft | 482 kts | 99° |
| 2026-04-23 08:33 | 34.01546 | -98.80470 | 30803 ft | 482 kts | 99° |
| 2026-04-23 08:33 | 34.00468 | -98.72553 | 30829 ft | 482 kts | 99° |
| 2026-04-23 08:34 | 33.99378 | -98.64601 | 30844 ft | 480 kts | 99° |
| 2026-04-23 08:34 | 33.98437 | -98.56630 | 31143 ft | 481 kts | 95° |
| 2026-04-23 08:35 | 33.98103 | -98.52633 | 31500 ft | 479 kts | 96° |
| 2026-04-23 08:35 | 33.97760 | -98.48650 | 31810 ft | 478 kts | 96° |
| 2026-04-23 08:35 | 33.97419 | -98.44725 | 32076 ft | 477 kts | 96° |
| 2026-04-23 08:35 | 33.97083 | -98.40747 | 32305 ft | 477 kts | 96° |
| 2026-04-23 08:36 | 33.96744 | -98.36772 | 32556 ft | 477 kts | 96° |
| 2026-04-23 08:36 | 33.96403 | -98.32794 | 32787 ft | 478 kts | 96° |
| 2026-04-23 08:36 | 33.95698 | -98.24832 | 32868 ft | 478 kts | 96° |
| 2026-04-23 08:37 | 33.94989 | -98.16869 | 32844 ft | 478 kts | 96° |
| 2026-04-23 08:37 | 33.94274 | -98.08965 | 32834 ft | 479 kts | 96° |
| 2026-04-23 08:38 | 33.93553 | -98.00993 | 32847 ft | 479 kts | 96° |
| 2026-04-23 08:38 | 33.92830 | -97.93020 | 32851 ft | 479 kts | 95° |
| 2026-04-23 08:39 | 33.92096 | -97.85042 | 32857 ft | 479 kts | 95° |
| 2026-04-23 08:39 | 33.91367 | -97.77125 | 32855 ft | 479 kts | 95° |
| 2026-04-23 08:40 | 33.90627 | -97.69160 | 32866 ft | 479 kts | 95° |
| 2026-04-23 08:40 | 33.89877 | -97.61192 | 32869 ft | 479 kts | 96° |
| 2026-04-23 08:41 | 33.89118 | -97.53228 | 32885 ft | 478 kts | 95° |
| 2026-04-23 08:41 | 33.88366 | -97.45334 | 32887 ft | 478 kts | 95° |
| 2026-04-23 08:42 | 33.87590 | -97.37383 | 32884 ft | 478 kts | 95° |
| 2026-04-23 08:42 | 33.86832 | -97.29436 | 32885 ft | 478 kts | 95° |
| 2026-04-23 08:43 | 33.86052 | -97.21484 | 32897 ft | 479 kts | 95° |
| 2026-04-23 08:43 | 33.85277 | -97.13529 | 32900 ft | 479 kts | 95° |
| 2026-04-23 08:44 | 33.84501 | -97.05630 | 32898 ft | 479 kts | 95° |
| 2026-04-23 08:44 | 33.83719 | -96.97682 | 32910 ft | 479 kts | 95° |
| 2026-04-23 08:45 | 33.82143 | -96.82166 | 32922 ft | 478 kts | 95° |
| 2026-04-23 08:46 | 33.80530 | -96.66445 | 32924 ft | 477 kts | 95° |
| 2026-04-23 08:47 | 33.79743 | -96.58526 | 32924 ft | 477 kts | 95° |
| 2026-04-23 08:47 | 33.78966 | -96.50679 | 32945 ft | 477 kts | 95° |
| 2026-04-23 08:48 | 33.78153 | -96.42760 | 32947 ft | 475 kts | 96° |
| 2026-04-23 08:48 | 33.77330 | -96.34898 | 32947 ft | 475 kts | 96° |
| 2026-04-23 08:49 | 33.76502 | -96.26997 | 32942 ft | 475 kts | 96° |
| 2026-04-23 08:49 | 33.75652 | -96.19066 | 32931 ft | 476 kts | 96° |
| 2026-04-23 08:50 | 33.74778 | -96.11195 | 32945 ft | 476 kts | 96° |
| 2026-04-23 08:50 | 33.73961 | -96.03328 | 32953 ft | 471 kts | 96° |
| 2026-04-23 08:51 | 33.73141 | -95.95591 | 32951 ft | 472 kts | 97° |
| 2026-04-23 08:51 | 33.72286 | -95.87773 | 32953 ft | 472 kts | 97° |
| 2026-04-23 08:52 | 33.71419 | -95.79944 | 32945 ft | 472 kts | 97° |
| 2026-04-23 08:52 | 33.70583 | -95.72158 | 32953 ft | 472 kts | 97° |
| 2026-04-23 08:53 | 33.69722 | -95.64342 | 32952 ft | 469 kts | 97° |
| 2026-04-23 08:53 | 33.68868 | -95.56628 | 32974 ft | 470 kts | 97° |
| 2026-04-23 08:54 | 33.68008 | -95.48850 | 32965 ft | 470 kts | 97° |
| 2026-04-23 08:54 | 33.67128 | -95.41087 | 32962 ft | 470 kts | 97° |
| 2026-04-23 08:55 | 33.66264 | -95.33354 | 32965 ft | 470 kts | 97° |
| 2026-04-23 08:55 | 33.65386 | -95.25618 | 32989 ft | 468 kts | 97° |
| 2026-04-23 08:56 | 33.64507 | -95.17916 | 32975 ft | 468 kts | 97° |
| 2026-04-23 08:56 | 33.63607 | -95.10124 | 32923 ft | 468 kts | 97° |
| 2026-04-23 08:57 | 33.62727 | -95.02391 | 32974 ft | 467 kts | 97° |
| 2026-04-23 08:57 | 33.61833 | -94.94700 | 32981 ft | 468 kts | 97° |
| 2026-04-23 08:58 | 33.60934 | -94.87043 | 32979 ft | 464 kts | 98° |
| 2026-04-23 08:58 | 33.60045 | -94.79369 | 32992 ft | 464 kts | 98° |
| 2026-04-23 08:59 | 33.59146 | -94.71675 | 33001 ft | 465 kts | 98° |
| 2026-04-23 08:59 | 33.58231 | -94.63974 | 32992 ft | 466 kts | 98° |
| 2026-04-23 09:00 | 33.57311 | -94.56286 | 32995 ft | 466 kts | 98° |
| 2026-04-23 09:00 | 33.56404 | -94.48705 | 32989 ft | 463 kts | 98° |
| 2026-04-23 09:01 | 33.55483 | -94.41048 | 32998 ft | 463 kts | 98° |
| 2026-04-23 09:01 | 33.54565 | -94.33405 | 32997 ft | 463 kts | 98° |
| 2026-04-23 09:02 | 33.53620 | -94.25768 | 33005 ft | 463 kts | 99° |
| 2026-04-23 09:02 | 33.52665 | -94.18122 | 33013 ft | 463 kts | 99° |
| 2026-04-23 09:03 | 33.51727 | -94.10612 | 33011 ft | 458 kts | 99° |
| 2026-04-23 09:03 | 33.50540 | -94.03142 | 33008 ft | 457 kts | 104° |
| 2026-04-23 09:04 | 33.49119 | -93.95739 | 33006 ft | 457 kts | 104° |
| 2026-04-23 09:04 | 33.47704 | -93.88300 | 33005 ft | 457 kts | 104° |
| 2026-04-23 09:05 | 33.46257 | -93.80963 | 33010 ft | 457 kts | 104° |
| 2026-04-23 09:05 | 33.44833 | -93.73561 | 32999 ft | 454 kts | 104° |
| 2026-04-23 09:06 | 33.43408 | -93.66206 | 33008 ft | 454 kts | 104° |
| 2026-04-23 09:06 | 33.41971 | -93.58858 | 33011 ft | 454 kts | 104° |
| 2026-04-23 09:07 | 33.40541 | -93.51613 | 33008 ft | 454 kts | 104° |
| 2026-04-23 09:07 | 33.39068 | -93.44208 | 33012 ft | 454 kts | 104° |
| 2026-04-23 09:08 | 33.37628 | -93.36923 | 33025 ft | 454 kts | 104° |
| 2026-04-23 09:08 | 33.36155 | -93.29477 | 33023 ft | 454 kts | 104° |
| 2026-04-23 09:09 | 33.34721 | -93.22248 | 33010 ft | 449 kts | 104° |
| 2026-04-23 09:09 | 33.33272 | -93.14985 | 33022 ft | 449 kts | 104° |
| 2026-04-23 09:10 | 33.31080 | -93.04098 | 33029 ft | 449 kts | 104° |
| 2026-04-23 09:11 | 33.29643 | -92.96901 | 33028 ft | 449 kts | 104° |
| 2026-04-23 09:11 | 33.28180 | -92.89647 | 33038 ft | 449 kts | 104° |
| 2026-04-23 09:12 | 33.26710 | -92.82390 | 33030 ft | 449 kts | 104° |
| 2026-04-23 09:12 | 33.25236 | -92.75140 | 33035 ft | 449 kts | 104° |
| 2026-04-23 09:13 | 33.23754 | -92.67902 | 33048 ft | 449 kts | 104° |
| 2026-04-23 09:13 | 33.22272 | -92.60664 | 33046 ft | 449 kts | 104° |
| 2026-04-23 09:14 | 33.20806 | -92.53500 | 33047 ft | 449 kts | 104° |
| 2026-04-23 09:14 | 33.19319 | -92.46265 | 33047 ft | 449 kts | 104° |
| 2026-04-23 09:15 | 33.17822 | -92.38995 | 33049 ft | 449 kts | 104° |
| 2026-04-23 09:15 | 33.16317 | -92.31773 | 33056 ft | 449 kts | 104° |
| 2026-04-23 09:16 | 33.14830 | -92.24646 | 33059 ft | 446 kts | 104° |
| 2026-04-23 09:16 | 33.13317 | -92.17477 | 33050 ft | 446 kts | 104° |
| 2026-04-23 09:17 | 33.11828 | -92.10333 | 33060 ft | 446 kts | 104° |
| 2026-04-23 09:17 | 33.10311 | -92.03061 | 33062 ft | 446 kts | 104° |
| 2026-04-23 09:18 | 33.08810 | -91.95956 | 33066 ft | 446 kts | 104° |
| 2026-04-23 09:18 | 33.07300 | -91.88773 | 33069 ft | 445 kts | 104° |
| 2026-04-23 09:19 | 33.05785 | -91.81632 | 33059 ft | 444 kts | 104° |
| 2026-04-23 09:19 | 33.04277 | -91.74492 | 33064 ft | 444 kts | 104° |
| 2026-04-23 09:20 | 33.02764 | -91.67350 | 33073 ft | 444 kts | 104° |
| 2026-04-23 09:20 | 33.01258 | -91.60274 | 33070 ft | 444 kts | 104° |
| 2026-04-23 09:21 | 32.98291 | -91.46458 | 33072 ft | 443 kts | 104° |
| 2026-04-23 09:22 | 32.96770 | -91.39394 | 33067 ft | 443 kts | 104° |
| 2026-04-23 09:22 | 32.95237 | -91.32300 | 33069 ft | 443 kts | 104° |
| 2026-04-23 09:23 | 32.93694 | -91.25188 | 33065 ft | 443 kts | 104° |
| 2026-04-23 09:23 | 32.92150 | -91.18095 | 33062 ft | 443 kts | 104° |
| 2026-04-23 09:24 | 32.90608 | -91.11040 | 33062 ft | 443 kts | 104° |
| 2026-04-23 09:24 | 32.89061 | -91.03954 | 33070 ft | 442 kts | 104° |
| 2026-04-23 09:25 | 32.87471 | -90.96872 | 33078 ft | 444 kts | 104° |
| 2026-04-23 09:25 | 32.85887 | -90.89778 | 33086 ft | 444 kts | 103° |
| 2026-04-23 09:26 | 32.84367 | -90.82658 | 33091 ft | 445 kts | 104° |
| 2026-04-23 09:26 | 32.82817 | -90.75599 | 33086 ft | 444 kts | 104° |
| 2026-04-23 09:27 | 32.81239 | -90.68493 | 33089 ft | 445 kts | 104° |
| 2026-04-23 09:27 | 32.79647 | -90.61383 | 33085 ft | 445 kts | 104° |
| 2026-04-23 09:28 | 32.78060 | -90.54278 | 33082 ft | 445 kts | 104° |
| 2026-04-23 09:28 | 32.76474 | -90.47169 | 33084 ft | 445 kts | 104° |
| 2026-04-23 09:29 | 32.74881 | -90.40113 | 33082 ft | 445 kts | 104° |
| 2026-04-23 09:29 | 32.73291 | -90.33002 | 33089 ft | 446 kts | 104° |
| 2026-04-23 09:30 | 32.71684 | -90.25872 | 33096 ft | 447 kts | 104° |
| 2026-04-23 09:30 | 32.70071 | -90.18745 | 33096 ft | 447 kts | 104° |
| 2026-04-23 09:31 | 32.68462 | -90.11664 | 33094 ft | 447 kts | 104° |
| 2026-04-23 09:31 | 32.66840 | -90.04536 | 33097 ft | 447 kts | 104° |
| 2026-04-23 09:32 | 32.65213 | -89.97408 | 33061 ft | 448 kts | 104° |
| 2026-04-23 09:32 | 32.63566 | -89.90271 | 33059 ft | 449 kts | 104° |
| 2026-04-23 09:33 | 32.61931 | -89.83120 | 33057 ft | 449 kts | 104° |
| 2026-04-23 09:33 | 32.60267 | -89.76039 | 33055 ft | 448 kts | 104° |
| 2026-04-23 09:34 | 32.58643 | -89.68910 | 33035 ft | 448 kts | 104° |
| 2026-04-23 09:34 | 32.57005 | -89.61778 | 33034 ft | 448 kts | 104° |
| 2026-04-23 09:35 | 32.55345 | -89.54659 | 33037 ft | 448 kts | 104° |
| 2026-04-23 09:35 | 32.53699 | -89.47589 | 33017 ft | 448 kts | 104° |
| 2026-04-23 09:36 | 32.52039 | -89.40475 | 33014 ft | 448 kts | 104° |
| 2026-04-23 09:36 | 32.50373 | -89.33355 | 33050 ft | 448 kts | 104° |
| 2026-04-23 09:37 | 32.48703 | -89.26246 | 33057 ft | 448 kts | 104° |
| 2026-04-23 09:37 | 32.47042 | -89.19181 | 33061 ft | 449 kts | 104° |
| 2026-04-23 09:38 | 32.45360 | -89.12060 | 33061 ft | 449 kts | 104° |
| 2026-04-23 09:38 | 32.43672 | -89.04942 | 33058 ft | 449 kts | 104° |
| 2026-04-23 09:39 | 32.41984 | -88.97823 | 33059 ft | 449 kts | 104° |
| 2026-04-23 09:39 | 32.40281 | -88.90717 | 33070 ft | 449 kts | 105° |
| 2026-04-23 09:40 | 32.38585 | -88.83657 | 33117 ft | 449 kts | 104° |
| 2026-04-23 09:40 | 32.37052 | -88.76486 | 33125 ft | 450 kts | 102° |
| 2026-04-23 09:41 | 32.35633 | -88.69266 | 33126 ft | 451 kts | 102° |
| 2026-04-23 09:41 | 32.34214 | -88.62056 | 33140 ft | 451 kts | 102° |
| 2026-04-23 09:42 | 32.32770 | -88.54896 | 33139 ft | 451 kts | 102° |
| 2026-04-23 09:42 | 32.31346 | -88.47678 | 33141 ft | 451 kts | 102° |
| 2026-04-23 09:43 | 32.29897 | -88.40467 | 33146 ft | 451 kts | 102° |
| 2026-04-23 09:43 | 32.28450 | -88.33254 | 33146 ft | 451 kts | 102° |
| 2026-04-23 09:44 | 32.26993 | -88.26100 | 33142 ft | 451 kts | 102° |
| 2026-04-23 09:44 | 32.25576 | -88.18887 | 33142 ft | 451 kts | 102° |
| 2026-04-23 09:45 | 32.24137 | -88.11679 | 33138 ft | 451 kts | 102° |
| 2026-04-23 09:45 | 32.22681 | -88.04474 | 33143 ft | 451 kts | 102° |
| 2026-04-23 09:46 | 32.21216 | -87.97258 | 33127 ft | 452 kts | 102° |
| 2026-04-23 09:46 | 32.19753 | -87.90098 | 33122 ft | 452 kts | 102° |
| 2026-04-23 09:47 | 32.18292 | -87.82953 | 33098 ft | 446 kts | 102° |
| 2026-04-23 09:47 | 32.16832 | -87.75829 | 33096 ft | 446 kts | 102° |
| 2026-04-23 09:48 | 32.15377 | -87.68757 | 33099 ft | 447 kts | 103° |
| 2026-04-23 09:48 | 32.13903 | -87.61627 | 33097 ft | 447 kts | 102° |
| 2026-04-23 09:49 | 32.12431 | -87.54495 | 33079 ft | 447 kts | 102° |
| 2026-04-23 09:49 | 32.10954 | -87.47367 | 33076 ft | 448 kts | 103° |
| 2026-04-23 09:50 | 32.09466 | -87.40226 | 33059 ft | 448 kts | 102° |
| 2026-04-23 09:50 | 32.07990 | -87.33136 | 33059 ft | 448 kts | 103° |
| 2026-04-23 09:51 | 32.06494 | -87.25994 | 33055 ft | 449 kts | 102° |
| 2026-04-23 09:51 | 32.04994 | -87.18854 | 33047 ft | 449 kts | 102° |
| 2026-04-23 09:52 | 32.03484 | -87.11706 | 33060 ft | 449 kts | 103° |
| 2026-04-23 09:52 | 32.01973 | -87.04565 | 33045 ft | 449 kts | 103° |
| 2026-04-23 09:53 | 32.00473 | -86.97464 | 33041 ft | 449 kts | 103° |
| 2026-04-23 09:53 | 31.98956 | -86.90320 | 33050 ft | 450 kts | 102° |
| 2026-04-23 09:54 | 31.97432 | -86.83180 | 33082 ft | 450 kts | 102° |
| 2026-04-23 09:54 | 31.95905 | -86.76021 | 33105 ft | 451 kts | 102° |
| 2026-04-23 09:55 | 31.94368 | -86.68860 | 33133 ft | 451 kts | 103° |
| 2026-04-23 09:55 | 31.92830 | -86.61752 | 33148 ft | 451 kts | 103° |
| 2026-04-23 09:56 | 31.91281 | -86.54604 | 33149 ft | 451 kts | 103° |
| 2026-04-23 09:56 | 31.89734 | -86.47432 | 33140 ft | 452 kts | 102° |
| 2026-04-23 09:57 | 31.88171 | -86.40258 | 33124 ft | 453 kts | 102° |
| 2026-04-23 09:57 | 31.86620 | -86.33079 | 33126 ft | 453 kts | 102° |
| 2026-04-23 09:58 | 31.85065 | -86.25954 | 33112 ft | 453 kts | 103° |
| 2026-04-23 09:58 | 31.83493 | -86.18789 | 33144 ft | 453 kts | 103° |
| 2026-04-23 09:59 | 31.81923 | -86.11614 | 33170 ft | 453 kts | 102° |
| 2026-04-23 09:59 | 31.80345 | -86.04438 | 33170 ft | 453 kts | 102° |
| 2026-04-23 10:00 | 31.78760 | -85.97267 | 33167 ft | 454 kts | 103° |
| 2026-04-23 10:00 | 31.77178 | -85.90141 | 33170 ft | 454 kts | 102° |
| 2026-04-23 10:01 | 31.75587 | -85.82958 | 33161 ft | 454 kts | 103° |
| 2026-04-23 10:01 | 31.73991 | -85.75787 | 33154 ft | 454 kts | 103° |
| 2026-04-23 10:02 | 31.72388 | -85.68607 | 33154 ft | 454 kts | 103° |
| 2026-04-23 10:02 | 31.70761 | -85.61490 | 33151 ft | 455 kts | 103° |
| 2026-04-23 10:03 | 31.69119 | -85.54315 | 33155 ft | 455 kts | 103° |
| 2026-04-23 10:03 | 31.67526 | -85.47123 | 33154 ft | 455 kts | 103° |
| 2026-04-23 10:04 | 31.65906 | -85.39952 | 33160 ft | 455 kts | 103° |
| 2026-04-23 10:04 | 31.64294 | -85.32748 | 33158 ft | 456 kts | 103° |
| 2026-04-23 10:05 | 31.62676 | -85.25604 | 33166 ft | 456 kts | 103° |
| 2026-04-23 10:05 | 31.61046 | -85.18407 | 33171 ft | 456 kts | 103° |
| 2026-04-23 10:06 | 31.59409 | -85.11220 | 33175 ft | 456 kts | 103° |
| 2026-04-23 10:06 | 31.57765 | -85.04033 | 33182 ft | 456 kts | 103° |
| 2026-04-23 10:07 | 31.55856 | -84.96958 | 33179 ft | 460 kts | 108° |
| 2026-04-23 10:07 | 31.53689 | -84.89909 | 33180 ft | 460 kts | 108° |
| 2026-04-23 10:08 | 31.51518 | -84.82861 | 33179 ft | 460 kts | 108° |
| 2026-04-23 10:08 | 31.49367 | -84.75830 | 33175 ft | 455 kts | 108° |
| 2026-04-23 10:09 | 31.46145 | -84.65364 | 33185 ft | 455 kts | 108° |
| 2026-04-23 10:09 | 31.44005 | -84.58429 | 33178 ft | 456 kts | 108° |
| 2026-04-23 10:10 | 31.41847 | -84.51449 | 33175 ft | 456 kts | 108° |
| 2026-04-23 10:10 | 31.39688 | -84.44474 | 33165 ft | 457 kts | 108° |
| 2026-04-23 10:11 | 31.37513 | -84.37471 | 33176 ft | 458 kts | 108° |
| 2026-04-23 10:11 | 31.35343 | -84.30507 | 33180 ft | 459 kts | 108° |
| 2026-04-23 10:12 | 31.33154 | -84.23495 | 33180 ft | 459 kts | 108° |
| 2026-04-23 10:12 | 31.30966 | -84.16473 | 33180 ft | 459 kts | 108° |
| 2026-04-23 10:13 | 31.28766 | -84.09461 | 33180 ft | 459 kts | 108° |
| 2026-04-23 10:13 | 31.26563 | -84.02447 | 33182 ft | 460 kts | 109° |
| 2026-04-23 10:14 | 31.24366 | -83.95478 | 33188 ft | 460 kts | 109° |
| 2026-04-23 10:14 | 31.22154 | -83.88464 | 33191 ft | 460 kts | 109° |
| 2026-04-23 10:15 | 31.19938 | -83.81450 | 33191 ft | 460 kts | 109° |
| 2026-04-23 10:15 | 31.17711 | -83.74432 | 33190 ft | 461 kts | 109° |
| 2026-04-23 10:16 | 31.15486 | -83.67423 | 33190 ft | 460 kts | 109° |
| 2026-04-23 10:16 | 31.13268 | -83.60468 | 33191 ft | 460 kts | 109° |
| 2026-04-23 10:17 | 31.11030 | -83.53462 | 33191 ft | 460 kts | 109° |
| 2026-04-23 10:17 | 31.08788 | -83.46474 | 33193 ft | 460 kts | 109° |
| 2026-04-23 10:18 | 31.06550 | -83.39482 | 33172 ft | 461 kts | 109° |
| 2026-04-23 10:18 | 31.04331 | -83.32513 | 33173 ft | 461 kts | 109° |
| 2026-04-23 10:19 | 31.02075 | -83.25512 | 33170 ft | 462 kts | 109° |
| 2026-04-23 10:19 | 30.99807 | -83.18507 | 33170 ft | 461 kts | 109° |
| 2026-04-23 10:20 | 30.97555 | -83.11508 | 33172 ft | 462 kts | 109° |
| 2026-04-23 10:20 | 30.95302 | -83.04551 | 33173 ft | 462 kts | 110° |
| 2026-04-23 10:21 | 30.93033 | -82.97555 | 33180 ft | 462 kts | 110° |
| 2026-04-23 10:21 | 30.90738 | -82.90571 | 33178 ft | 462 kts | 112° |
| 2026-04-23 10:22 | 30.87320 | -82.84267 | 33213 ft | 464 kts | 133° |
| 2026-04-23 10:22 | 30.82383 | -82.79447 | 33219 ft | 464 kts | 143° |
| 2026-04-23 10:23 | 30.77287 | -82.74937 | 33218 ft | 463 kts | 142° |
| 2026-04-23 10:23 | 30.72187 | -82.70354 | 33249 ft | 464 kts | 142° |
| 2026-04-23 10:24 | 30.67076 | -82.65752 | 33251 ft | 465 kts | 142° |
| 2026-04-23 10:24 | 30.61966 | -82.61156 | 33251 ft | 465 kts | 142° |
| 2026-04-23 10:25 | 30.56891 | -82.56597 | 33251 ft | 465 kts | 142° |
| 2026-04-23 10:25 | 30.51778 | -82.52013 | 33268 ft | 465 kts | 143° |
| 2026-04-23 10:26 | 30.46664 | -82.47432 | 33266 ft | 465 kts | 143° |
| 2026-04-23 10:26 | 30.41547 | -82.42851 | 33269 ft | 465 kts | 143° |
| 2026-04-23 10:27 | 30.36465 | -82.38305 | 33276 ft | 465 kts | 143° |
| 2026-04-23 10:27 | 30.31341 | -82.33738 | 33271 ft | 465 kts | 143° |
| 2026-04-23 10:28 | 30.26213 | -82.29171 | 33257 ft | 465 kts | 143° |
| 2026-04-23 10:28 | 30.20957 | -82.24826 | 33244 ft | 464 kts | 152° |
| 2026-04-23 10:29 | 30.17994 | -82.23370 | 33244 ft | 463 kts | 164° |
| 2026-04-23 10:29 | 30.14859 | -82.22562 | 33231 ft | 461 kts | 172° |
| 2026-04-23 10:29 | 30.08576 | -82.21385 | 33237 ft | 460 kts | 173° |
| 2026-04-23 10:30 | 30.02260 | -82.20169 | 33233 ft | 461 kts | 172° |
| 2026-04-23 10:30 | 29.95949 | -82.18926 | 33056 ft | 456 kts | 172° |
| 2026-04-23 10:31 | 29.92839 | -82.18312 | 32396 ft | 452 kts | 172° |
| 2026-04-23 10:31 | 29.89741 | -82.17701 | 31628 ft | 452 kts | 172° |
| 2026-04-23 10:31 | 29.86641 | -82.17080 | 30859 ft | 453 kts | 172° |
| 2026-04-23 10:31 | 29.83581 | -82.16465 | 30122 ft | 452 kts | 172° |
| 2026-04-23 10:32 | 29.80478 | -82.15847 | 29346 ft | 452 kts | 172° |
| 2026-04-23 10:32 | 29.77387 | -82.15233 | 28670 ft | 450 kts | 172° |
| 2026-04-23 10:32 | 29.74318 | -82.14624 | 28041 ft | 447 kts | 172° |
| 2026-04-23 10:32 | 29.71269 | -82.14017 | 27427 ft | 443 kts | 172° |
| 2026-04-23 10:33 | 29.68238 | -82.13413 | 26796 ft | 441 kts | 172° |
| 2026-04-23 10:33 | 29.65221 | -82.12812 | 26179 ft | 438 kts | 172° |
| 2026-04-23 10:33 | 29.62223 | -82.12216 | 25587 ft | 435 kts | 173° |
| 2026-04-23 10:33 | 29.59246 | -82.11627 | 24966 ft | 433 kts | 173° |
| 2026-04-23 10:34 | 29.56280 | -82.11039 | 24346 ft | 432 kts | 173° |
| 2026-04-23 10:34 | 29.53364 | -82.10461 | 23729 ft | 430 kts | 173° |
| 2026-04-23 10:34 | 29.50425 | -82.09878 | 23025 ft | 426 kts | 173° |
| 2026-04-23 10:34 | 29.47524 | -82.09303 | 22370 ft | 421 kts | 173° |
| 2026-04-23 10:35 | 29.44655 | -82.08737 | 21734 ft | 416 kts | 173° |
| 2026-04-23 10:35 | 29.41819 | -82.08177 | 21137 ft | 411 kts | 173° |
| 2026-04-23 10:35 | 29.39022 | -82.07626 | 20559 ft | 406 kts | 173° |
| 2026-04-23 10:35 | 29.36252 | -82.07082 | 20009 ft | 403 kts | 173° |
| 2026-04-23 10:36 | 29.33498 | -82.06540 | 19486 ft | 400 kts | 173° |
| 2026-04-23 10:36 | 29.30819 | -82.05886 | 18981 ft | 400 kts | 164° |
| 2026-04-23 10:36 | 29.28291 | -82.04557 | 18501 ft | 401 kts | 154° |
| 2026-04-23 10:36 | 29.25835 | -82.02987 | 17899 ft | 396 kts | 153° |
| 2026-04-23 10:37 | 29.23446 | -82.01444 | 17328 ft | 391 kts | 153° |
| 2026-04-23 10:37 | 29.21115 | -81.99955 | 16798 ft | 386 kts | 153° |
| 2026-04-23 10:37 | 29.18784 | -81.98478 | 16308 ft | 380 kts | 153° |
| 2026-04-23 10:37 | 29.16468 | -81.97018 | 15844 ft | 380 kts | 153° |
| 2026-04-23 10:38 | 29.14156 | -81.95564 | 15390 ft | 377 kts | 153° |
| 2026-04-23 10:38 | 29.11882 | -81.94135 | 14950 ft | 370 kts | 153° |
| 2026-04-23 10:38 | 29.09639 | -81.92728 | 14508 ft | 368 kts | 153° |
| 2026-04-23 10:38 | 29.07406 | -81.91294 | 14051 ft | 366 kts | 149° |
| 2026-04-23 10:39 | 29.05428 | -81.89504 | 13563 ft | 361 kts | 138° |
| 2026-04-23 10:39 | 29.03607 | -81.87542 | 13096 ft | 358 kts | 137° |
| 2026-04-23 10:39 | 29.01809 | -81.85582 | 12666 ft | 357 kts | 137° |
| 2026-04-23 10:39 | 29.00039 | -81.83665 | 12156 ft | 353 kts | 137° |
| 2026-04-23 10:40 | 28.98287 | -81.81739 | 11798 ft | 344 kts | 133° |
| 2026-04-23 10:40 | 28.96786 | -81.79660 | 11466 ft | 337 kts | 128° |
| 2026-04-23 10:40 | 28.95364 | -81.77536 | 11101 ft | 335 kts | 127° |
| 2026-04-23 10:40 | 28.93974 | -81.75453 | 10852 ft | 323 kts | 127° |
| 2026-04-23 10:41 | 28.92635 | -81.73456 | 10662 ft | 311 kts | 127° |
| 2026-04-23 10:41 | 28.91346 | -81.71540 | 10460 ft | 300 kts | 127° |
| 2026-04-23 10:41 | 28.90089 | -81.69674 | 10141 ft | 294 kts | 127° |
| 2026-04-23 10:41 | 28.88849 | -81.67836 | 9731 ft | 291 kts | 127° |
| 2026-04-23 10:42 | 28.87635 | -81.66037 | 9320 ft | 290 kts | 127° |
| 2026-04-23 10:42 | 28.86401 | -81.64211 | 8922 ft | 291 kts | 127° |
| 2026-04-23 10:42 | 28.85170 | -81.62390 | 8529 ft | 288 kts | 127° |
| 2026-04-23 10:42 | 28.83957 | -81.60594 | 8175 ft | 284 kts | 126° |
| 2026-04-23 10:43 | 28.82761 | -81.58828 | 7838 ft | 280 kts | 126° |
| 2026-04-23 10:43 | 28.81583 | -81.57085 | 7558 ft | 273 kts | 126° |
| 2026-04-23 10:43 | 28.80441 | -81.55400 | 7239 ft | 264 kts | 126° |
| 2026-04-23 10:43 | 28.79342 | -81.53771 | 7061 ft | 254 kts | 124° |
| 2026-04-23 10:44 | 28.78358 | -81.52126 | 6795 ft | 250 kts | 121° |
| 2026-04-23 10:44 | 28.77421 | -81.50459 | 6460 ft | 250 kts | 120° |
| 2026-04-23 10:44 | 28.76488 | -81.48794 | 6111 ft | 249 kts | 120° |
| 2026-04-23 10:44 | 28.75576 | -81.47161 | 5977 ft | 239 kts | 120° |
| 2026-04-23 10:45 | 28.74683 | -81.45562 | 5964 ft | 239 kts | 121° |
| 2026-04-23 10:45 | 28.73794 | -81.43999 | 5972 ft | 238 kts | 124° |
| 2026-04-23 10:45 | 28.72606 | -81.42703 | 5679 ft | 237 kts | 143° |
| 2026-04-23 10:45 | 28.71230 | -81.41667 | 5311 ft | 237 kts | 144° |
| 2026-04-23 10:46 | 28.69848 | -81.40633 | 4947 ft | 237 kts | 144° |
| 2026-04-23 10:46 | 28.68473 | -81.39600 | 4596 ft | 236 kts | 144° |
| 2026-04-23 10:46 | 28.67111 | -81.38571 | 4254 ft | 234 kts | 145° |
| 2026-04-23 10:46 | 28.65759 | -81.37546 | 3911 ft | 233 kts | 145° |
| 2026-04-23 10:47 | 28.64426 | -81.36530 | 3657 ft | 228 kts | 145° |
| 2026-04-23 10:47 | 28.63127 | -81.35538 | 3468 ft | 220 kts | 145° |
| 2026-04-23 10:47 | 28.61911 | -81.34616 | 3320 ft | 207 kts | 146° |
| 2026-04-23 10:47 | 28.60687 | -81.33804 | 3151 ft | 203 kts | 153° |
| 2026-04-23 10:48 | 28.59341 | -81.33340 | 2911 ft | 203 kts | 168° |
| 2026-04-23 10:48 | 28.57944 | -81.33105 | 2655 ft | 202 kts | 169° |
| 2026-04-23 10:48 | 28.56546 | -81.32897 | 2399 ft | 201 kts | 172° |
| 2026-04-23 10:48 | 28.55158 | -81.32858 | 2125 ft | 196 kts | 177° |
| 2026-04-23 10:49 | 28.53878 | -81.32863 | 2005 ft | 175 kts | 177° |
| 2026-04-23 10:49 | 28.52710 | -81.32832 | 1789 ft | 162 kts | 174° |
| 2026-04-23 10:49 | 28.51663 | -81.32777 | 1553 ft | 142 kts | 175° |
| 2026-04-23 10:49 | 28.50701 | -81.32767 | 1264 ft | 137 kts | 177° |
| 2026-04-23 10:50 | 28.49743 | -81.32765 | 1051 ft | 138 kts | 177° |
| 2026-04-23 10:50 | 28.48783 | -81.32735 | 865 ft | 138 kts | 175° |
| 2026-04-23 10:50 | 28.47814 | -81.32729 | 705 ft | 139 kts | 180° |
| 2026-04-23 10:50 | 28.46843 | -81.32729 | 548 ft | 140 kts | 178° |
| 2026-04-23 10:51 | 28.45869 | -81.32707 | 337 ft | 140 kts | 179° |
| 2026-04-23 10:51 | 28.44893 | -81.32698 | 181 ft | 140 kts | 178° |
| 2026-04-23 10:51 | 28.43944 | -81.32687 | 107 ft | 128 kts | 179° |
| 2026-04-23 10:51 | 28.43255 | -81.32681 | 115 ft | 69 kts | 180° |
| 2026-04-23 10:52 | 28.42957 | -81.32676 | 114 ft | 27 kts | 179° |
| 2026-04-23 10:52 | 28.42764 | -81.32675 | 110 ft | 28 kts | 179° |
| 2026-04-23 10:52 | 28.42631 | -81.32624 | 108 ft | 12 kts | 129° |
| 2026-04-23 10:52 | 28.42580 | -81.32533 | 110 ft | 15 kts | 120° |
| 2026-04-23 10:53 | 28.42523 | -81.32423 | 111 ft | 17 kts | 120° |
| 2026-04-23 10:53 | 28.42461 | -81.32298 | 114 ft | 19 kts | 119° |
| 2026-04-23 10:53 | 28.42391 | -81.32158 | 116 ft | 21 kts | 119° |
| 2026-04-23 10:53 | 28.42343 | -81.32002 | 115 ft | 21 kts | 87° |
| 2026-04-23 10:54 | 28.42348 | -81.31831 | 112 ft | 22 kts | 89° |
| 2026-04-23 10:54 | 28.42349 | -81.31653 | 109 ft | 23 kts | 90° |
| 2026-04-23 10:54 | 28.42349 | -81.31462 | 106 ft | 25 kts | 90° |
| 2026-04-23 10:54 | 28.42350 | -81.31276 | 105 ft | 24 kts | 92° |
| 2026-04-23 10:55 | 28.42329 | -81.31096 | 104 ft | 23 kts | 101° |
| 2026-04-23 10:55 | 28.42320 | -81.30925 | 105 ft | 22 kts | 85° |
| 2026-04-23 10:55 | 28.42332 | -81.30748 | 111 ft | 23 kts | 85° |
| 2026-04-23 10:55 | 28.42345 | -81.30557 | 111 ft | 25 kts | 85° |
| 2026-04-23 10:56 | 28.42357 | -81.30374 | 106 ft | 23 kts | 86° |
| 2026-04-23 10:56 | 28.42361 | -81.30206 | 108 ft | 21 kts | 89° |
| 2026-04-23 10:56 | 28.42362 | -81.30030 | 109 ft | 23 kts | 90° |
| 2026-04-23 10:56 | 28.42363 | -81.29875 | 109 ft | 16 kts | 89° |
| 2026-04-23 10:57 | 28.42427 | -81.29796 | 108 ft | 16 kts | 9° |
| 2026-04-23 10:57 | 28.42539 | -81.29795 | 108 ft | 16 kts | 359° |
| 2026-04-23 10:57 | 28.42595 | -81.29831 | 107 ft | 10 kts | 283° |
| 2026-04-23 10:57 | 28.42646 | -81.29882 | 109 ft | 12 kts | 354° |
| 2026-04-23 10:58 | 28.42734 | -81.29882 | 108 ft | 12 kts | 0° |
| 2026-04-23 10:58 | 28.42770 | -81.29911 | 108 ft | 7 kts | 282° |
| 2026-04-23 10:58 | 28.42768 | -81.29948 | 108 ft | 3 kts | 265° |
| 2026-04-23 10:58 | 28.42777 | -81.29977 | 107 ft | 3 kts | 304° |
| 2026-04-23 10:59 | 28.42790 | -81.29997 | 108 ft | 1 kts | 306° |
| 2026-04-23 10:59 | 28.42791 | -81.29998 | 108 ft | 0 kts | 306° |